Terminal Aerodrome Forecast
Issued by NWS St Louis, MO

Home | Current Version | Previous Version | Text Only | Print | Product List | Glossary On
Versions: 1 2 3 4 5 6 7 8 9 10 11 12 13 14 15 16 17 18 19 20 21 22 23 24 25 26 27
527
FTUS43 KLSX 261736
TAFCOU
TAF
KCOU 261736Z 2618/2718 26009KT P6SM OVC008
     FM262000 27004KT P6SM BKN015
     FM270100 VRB03KT P6SM BKN035
     FM270800 08005KT 4SM SHRA OVC015
     FM271100 04006KT 5SM SHRA OVC008=

USA.gov is the U.S. government's official web portal to all federal, state and local government web resources and services.